Time;durP1;ratioP1;P1;durP2;ratioP2;P2;SDS_P1;SDS_P2;PMS_P1;PMS_P2;Temp;Humidity;BMP_temperature;BMP_pressure;BME280_temperature;BME280_humidity;BME280_pressure;Samples;Min_cycle;Max_cycle;Signal;HPM_P1;HPM_P2
2021/10/23 00:01:42;;;;;;;0.10;0.10;;;;;;;;;;5035402;28;20815;-87
2021/10/23 00:04:08;;;;;;;1.27;0.88;;;;;;;;;;5034754;28;20025;-86
2021/10/23 00:06:34;;;;;;;0.10;0.10;;;;;;;;;;5041818;28;20059;-87
2021/10/23 00:09:00;;;;;;;0.20;0.20;;;;;;;;;;5036216;28;20095;-85
2021/10/23 00:11:27;;;;;;;0.38;0.38;;;;;;;;;;5038419;28;20441;-86
2021/10/23 00:13:53;;;;;;;0.10;0.10;;;;;;;;;;5033185;28;20731;-86
2021/10/23 00:16:19;;;;;;;0.10;0.10;;;;;;;;;;5033357;28;20033;-87
2021/10/23 00:18:45;;;;;;;0.10;0.10;;;;;;;;;;5033909;28;20071;-87
2021/10/23 00:21:11;;;;;;;0.10;0.10;;;;;;;;;;5033850;28;20032;-87
2021/10/23 00:23:37;;;;;;;0.05;0.05;;;;;;;;;;5038331;28;20036;-86
2021/10/23 00:26:03;;;;;;;0.10;0.10;;;;;;;;;;5036061;28;20039;-87
2021/10/23 00:28:29;;;;;;;0.10;0.10;;;;;;;;;;5031152;28;20091;-87
2021/10/23 00:30:55;;;;;;;0.10;0.10;;;;;;;;;;5032114;28;20509;-85
2021/10/23 00:33:21;;;;;;;0.30;0.30;;;;;;;;;;5033659;28;20405;-87
2021/10/23 00:35:47;;;;;;;0.10;0.10;;;;;;;;;;5032465;28;20040;-86
2021/10/23 00:38:13;;;;;;;2.23;0.67;;;;;;;;;;5034889;28;20029;-87
2021/10/23 00:40:39;;;;;;;0.00;0.00;;;;;;;;;;5033318;28;20124;-87
2021/10/23 00:43:06;;;;;;;0.10;0.10;;;;;;;;;;5035243;28;20048;-87
2021/10/23 00:45:32;;;;;;;0.05;0.05;;;;;;;;;;5033742;28;20126;-86
2021/10/23 00:47:58;;;;;;;0.10;0.10;;;;;;;;;;5033889;28;20321;-87
2021/10/23 00:50:24;;;;;;;0.10;0.10;;;;;;;;;;5015585;28;20413;-86
2021/10/23 00:52:50;;;;;;;0.33;0.33;;;;;;;;;;5033707;28;20132;-87
2021/10/23 00:55:16;;;;;;;0.10;0.10;;;;;;;;;;5036124;28;20124;-87
2021/10/23 00:57:42;;;;;;;0.10;0.10;;;;;;;;;;5033636;28;20057;-87
2021/10/23 01:00:09;;;;;;;0.00;0.00;;;;;;;;;;5041713;28;20122;-86
2021/10/23 01:02:35;;;;;;;0.20;0.20;;;;;;;;;;5039292;28;20029;-87
2021/10/23 01:05:03;;;;;;;1.80;1.17;;;;;;;;;;5015013;28;20083;-87
2021/10/23 01:07:29;;;;;;;0.10;0.10;;;;;;;;;;5031898;28;20036;-86
2021/10/23 01:09:55;;;;;;;0.00;0.00;;;;;;;;;;5031761;28;20060;-87
2021/10/23 01:12:21;;;;;;;0.37;0.37;;;;;;;;;;5032345;28;20037;-86
2021/10/23 01:14:47;;;;;;;0.20;0.20;;;;;;;;;;5029351;28;20025;-87
2021/10/23 01:17:19;;;;;;;0.10;0.10;;;;;;;;;;5031656;28;20698;-87
2021/10/23 01:19:48;;;;;;;0.00;0.00;;;;;;;;;;5032661;28;20604;-87
2021/10/23 01:22:14;;;;;;;0.10;0.10;;;;;;;;;;5033111;28;20417;-85
2021/10/23 01:24:40;;;;;;;0.10;0.10;;;;;;;;;;5029987;28;20122;-86
2021/10/23 01:27:06;;;;;;;0.10;0.10;;;;;;;;;;5033016;28;20026;-86
2021/10/23 01:29:32;;;;;;;0.10;0.10;;;;;;;;;;5030586;28;20588;-89
2021/10/23 01:31:58;;;;;;;0.00;0.00;;;;;;;;;;5034006;28;20040;-89
2021/10/23 01:34:26;;;;;;;0.10;0.10;;;;;;;;;;5032735;28;20291;-86
2021/10/23 01:36:53;;;;;;;0.30;0.30;;;;;;;;;;5030172;28;20026;-86
2021/10/23 01:39:20;;;;;;;0.00;0.00;;;;;;;;;;5034232;28;20057;-86
2021/10/23 01:41:46;;;;;;;2.45;1.08;;;;;;;;;;5032306;28;20037;-85
2021/10/23 01:44:14;;;;;;;0.00;0.00;;;;;;;;;;5029222;28;20033;-87
2021/10/23 01:46:40;;;;;;;0.30;0.30;;;;;;;;;;5032983;28;20026;-85
2021/10/23 01:49:07;;;;;;;0.80;0.80;;;;;;;;;;5031161;28;20112;-86
2021/10/23 01:51:34;;;;;;;0.10;0.10;;;;;;;;;;5032144;28;20053;-85
2021/10/23 01:54:07;;;;;;;0.10;0.10;;;;;;;;;;5030828;28;20033;-85
2021/10/23 01:56:33;;;;;;;0.00;0.00;;;;;;;;;;5033904;28;20069;-85
2021/10/23 01:59:00;;;;;;;0.10;0.10;;;;;;;;;;5032242;28;20485;-85
2021/10/23 02:01:26;;;;;;;0.32;0.32;;;;;;;;;;5029942;28;20104;-86
2021/10/23 02:03:52;;;;;;;0.55;0.35;;;;;;;;;;5035039;28;20035;-85
2021/10/23 02:06:18;;;;;;;0.05;0.05;;;;;;;;;;5032300;28;20064;-85
2021/10/23 02:08:44;;;;;;;0.10;0.10;;;;;;;;;;5031967;28;20029;-85
2021/10/23 02:11:10;;;;;;;0.10;0.10;;;;;;;;;;5031733;28;20306;-85
2021/10/23 02:13:36;;;;;;;0.20;0.20;;;;;;;;;;5030652;28;20025;-84
2021/10/23 02:16:03;;;;;;;0.20;0.20;;;;;;;;;;5030210;28;20041;-86
2021/10/23 02:18:29;;;;;;;0.10;0.10;;;;;;;;;;5030242;28;20029;-84
2021/10/23 02:20:55;;;;;;;0.08;0.08;;;;;;;;;;5037777;28;20033;-86
2021/10/23 02:23:21;;;;;;;0.32;0.32;;;;;;;;;;5034163;28;20040;-85
2021/10/23 02:25:47;;;;;;;0.10;0.10;;;;;;;;;;5033014;28;20075;-85
2021/10/23 02:28:13;;;;;;;0.00;0.00;;;;;;;;;;5034572;28;20083;-89
2021/10/23 02:30:39;;;;;;;0.10;0.10;;;;;;;;;;5033750;28;20056;-86
2021/10/23 02:33:06;;;;;;;0.10;0.10;;;;;;;;;;5033145;28;20051;-86
2021/10/23 02:35:32;;;;;;;0.00;0.00;;;;;;;;;;5032526;28;20029;-85
2021/10/23 02:37:58;;;;;;;0.00;0.00;;;;;;;;;;5038847;28;20040;-87
2021/10/23 02:40:24;;;;;;;0.17;0.17;;;;;;;;;;5038027;28;20044;-87
2021/10/23 02:42:50;;;;;;;0.10;0.10;;;;;;;;;;5033732;28;20410;-86
2021/10/23 02:45:17;;;;;;;0.03;0.03;;;;;;;;;;5032493;28;20071;-87
2021/10/23 02:47:43;;;;;;;0.00;0.00;;;;;;;;;;5035031;28;21110;-86
2021/10/23 02:50:09;;;;;;;0.10;0.10;;;;;;;;;;5033878;28;20434;-85
2021/10/23 02:52:36;;;;;;;0.00;0.00;;;;;;;;;;5016412;28;20045;-84
2021/10/23 02:55:02;;;;;;;0.00;0.00;;;;;;;;;;5032544;28;20044;-84
2021/10/23 02:57:28;;;;;;;0.10;0.10;;;;;;;;;;5033421;28;20062;-84
2021/10/23 02:59:54;;;;;;;0.10;0.10;;;;;;;;;;5033590;28;20030;-85
2021/10/23 03:02:20;;;;;;;0.00;0.00;;;;;;;;;;5031730;28;20484;-85
2021/10/23 03:04:46;;;;;;;0.15;0.15;;;;;;;;;;5033535;28;20029;-85
2021/10/23 03:07:12;;;;;;;0.00;0.00;;;;;;;;;;5016104;28;20451;-85
2021/10/23 03:09:38;;;;;;;0.45;0.45;;;;;;;;;;5033963;28;20053;-87
2021/10/23 03:12:05;;;;;;;1.10;0.45;;;;;;;;;;5033391;28;20049;-87
2021/10/23 03:14:31;;;;;;;0.00;0.00;;;;;;;;;;5032201;28;20116;-86
2021/10/23 03:16:57;;;;;;;0.10;0.10;;;;;;;;;;5034965;28;20029;-86
2021/10/23 03:19:23;;;;;;;0.10;0.10;;;;;;;;;;5032817;28;20021;-85
2021/10/23 03:21:50;;;;;;;3.88;1.80;;;;;;;;;;5032111;28;20037;-84
2021/10/23 03:24:16;;;;;;;0.00;0.00;;;;;;;;;;5036607;28;20876;-84
2021/10/23 03:26:42;;;;;;;0.13;0.13;;;;;;;;;;5033991;28;20593;-84
2021/10/23 03:29:08;;;;;;;0.30;0.30;;;;;;;;;;5033786;28;20033;-84
2021/10/23 03:31:34;;;;;;;0.10;0.10;;;;;;;;;;5035783;28;20041;-83
2021/10/23 03:34:00;;;;;;;0.00;0.00;;;;;;;;;;5035897;28;20029;-85
2021/10/23 03:36:26;;;;;;;0.10;0.10;;;;;;;;;;5036115;28;20036;-84
2021/10/23 03:38:52;;;;;;;0.10;0.10;;;;;;;;;;5036225;28;20029;-86
2021/10/23 03:41:18;;;;;;;0.10;0.10;;;;;;;;;;5041987;28;20757;-86
2021/10/23 03:43:44;;;;;;;0.10;0.10;;;;;;;;;;5038272;28;20086;-86
2021/10/23 03:46:10;;;;;;;0.30;0.25;;;;;;;;;;5034520;28;20063;-86
2021/10/23 03:48:36;;;;;;;12.45;0.55;;;;;;;;;;5018971;28;20655;-87
2021/10/23 03:51:02;;;;;;;0.10;0.10;;;;;;;;;;5034830;28;20053;-86
2021/10/23 03:53:28;;;;;;;0.10;0.10;;;;;;;;;;5033704;28;20049;-85
2021/10/23 03:55:55;;;;;;;0.00;0.00;;;;;;;;;;5032423;28;20046;-87
2021/10/23 03:58:21;;;;;;;0.00;0.00;;;;;;;;;;5031374;28;20774;-87
2021/10/23 04:00:47;;;;;;;0.10;0.10;;;;;;;;;;5030981;28;20037;-85
2021/10/23 04:03:13;;;;;;;0.10;0.10;;;;;;;;;;5030815;28;20029;-86
2021/10/23 04:05:39;;;;;;;0.03;0.03;;;;;;;;;;5032710;28;20083;-84
2021/10/23 04:08:05;;;;;;;1.90;1.08;;;;;;;;;;5033592;28;20126;-85
2021/10/23 04:10:31;;;;;;;0.10;0.10;;;;;;;;;;5032523;28;20123;-86
2021/10/23 04:12:57;;;;;;;0.10;0.10;;;;;;;;;;5032905;28;20139;-87
2021/10/23 04:15:23;;;;;;;0.00;0.00;;;;;;;;;;5044733;28;20095;-87
2021/10/23 04:17:49;;;;;;;0.10;0.10;;;;;;;;;;5043536;28;20036;-86
2021/10/23 04:20:15;;;;;;;0.00;0.00;;;;;;;;;;5035060;28;20040;-86
2021/10/23 04:22:41;;;;;;;0.10;0.10;;;;;;;;;;5016305;28;21167;-87
2021/10/23 04:25:08;;;;;;;0.20;0.20;;;;;;;;;;5034327;28;20041;-86
2021/10/23 04:27:34;;;;;;;0.00;0.00;;;;;;;;;;5030222;28;20263;-87
2021/10/23 04:30:00;;;;;;;0.20;0.20;;;;;;;;;;5034620;28;20549;-87
2021/10/23 04:32:26;;;;;;;0.08;0.08;;;;;;;;;;5035717;28;20033;-87
2021/10/23 04:34:52;;;;;;;0.00;0.00;;;;;;;;;;5038042;28;20032;-87
2021/10/23 04:37:18;;;;;;;0.10;0.10;;;;;;;;;;5034783;28;20029;-87
2021/10/23 04:39:44;;;;;;;0.03;0.03;;;;;;;;;;5029298;28;20044;-88
2021/10/23 04:42:10;;;;;;;0.52;0.20;;;;;;;;;;5037686;28;20551;-88
2021/10/23 04:44:36;;;;;;;0.10;0.10;;;;;;;;;;5021117;28;20584;-83
2021/10/23 04:47:03;;;;;;;0.10;0.10;;;;;;;;;;5035344;28;20040;-82
2021/10/23 04:49:29;;;;;;;1.08;0.43;;;;;;;;;;5030174;28;20037;-83
2021/10/23 04:51:55;;;;;;;0.10;0.10;;;;;;;;;;5033724;28;20052;-84
2021/10/23 04:54:21;;;;;;;0.20;0.20;;;;;;;;;;5032386;28;20111;-83
2021/10/23 04:56:47;;;;;;;1.13;0.50;;;;;;;;;;5036528;28;20033;-83
2021/10/23 04:59:13;;;;;;;0.08;0.08;;;;;;;;;;5033128;28;20163;-82
2021/10/23 05:01:40;;;;;;;0.10;0.10;;;;;;;;;;5034625;28;20124;-85
2021/10/23 05:04:06;;;;;;;0.43;0.43;;;;;;;;;;5032545;28;20021;-83
2021/10/23 05:06:32;;;;;;;0.10;0.10;;;;;;;;;;5030951;28;20067;-84
2021/10/23 05:08:58;;;;;;;0.23;0.23;;;;;;;;;;5034496;28;20053;-84
2021/10/23 05:11:24;;;;;;;0.10;0.10;;;;;;;;;;5032741;28;20041;-84
2021/10/23 05:13:50;;;;;;;0.00;0.00;;;;;;;;;;5033501;28;20520;-84
2021/10/23 05:16:16;;;;;;;0.05;0.05;;;;;;;;;;5035422;28;20837;-83
2021/10/23 05:18:42;;;;;;;0.10;0.10;;;;;;;;;;5014518;28;20037;-83
2021/10/23 05:21:08;;;;;;;0.00;0.00;;;;;;;;;;5033327;28;20512;-82
2021/10/23 05:23:34;;;;;;;0.00;0.00;;;;;;;;;;5032226;28;20032;-83
2021/10/23 05:26:00;;;;;;;0.10;0.10;;;;;;;;;;5033624;28;20533;-82
2021/10/23 05:28:26;;;;;;;0.00;0.00;;;;;;;;;;5028579;28;20041;-83
2021/10/23 05:30:52;;;;;;;0.10;0.10;;;;;;;;;;5031884;28;20086;-82
2021/10/23 05:33:18;;;;;;;0.00;0.00;;;;;;;;;;5035554;28;20029;-82
2021/10/23 05:35:44;;;;;;;0.05;0.05;;;;;;;;;;5039487;28;20033;-84
2021/10/23 05:38:10;;;;;;;0.00;0.00;;;;;;;;;;5042247;28;20071;-83
2021/10/23 05:40:36;;;;;;;0.03;0.03;;;;;;;;;;5040070;28;20037;-82
2021/10/23 05:43:02;;;;;;;0.00;0.00;;;;;;;;;;5041846;28;20033;-84
2021/10/23 05:45:28;;;;;;;0.10;0.10;;;;;;;;;;5033356;28;20115;-85
2021/10/23 05:47:55;;;;;;;0.10;0.10;;;;;;;;;;5024025;28;20044;-86
2021/10/23 05:50:21;;;;;;;0.10;0.10;;;;;;;;;;5037759;28;20045;-83
2021/10/23 05:52:47;;;;;;;0.07;0.07;;;;;;;;;;5034647;28;20098;-86
2021/10/23 05:55:13;;;;;;;3.43;1.40;;;;;;;;;;5035850;28;20036;-89
2021/10/23 05:57:39;;;;;;;0.00;0.00;;;;;;;;;;5046582;28;20036;-87
2021/10/23 06:00:07;;;;;;;0.10;0.10;;;;;;;;;;5048467;28;20036;-87
2021/10/23 06:02:33;;;;;;;0.03;0.03;;;;;;;;;;5038506;28;20026;-88
2021/10/23 06:05:01;;;;;;;0.40;0.40;;;;;;;;;;5032855;28;20030;-86
2021/10/23 06:07:28;;;;;;;0.00;0.00;;;;;;;;;;5034425;28;20363;-87
2021/10/23 06:09:56;;;;;;;0.10;0.10;;;;;;;;;;5041106;28;20721;-89
2021/10/23 06:12:24;;;;;;;0.28;0.28;;;;;;;;;;5022818;28;20053;-88
2021/10/23 06:14:50;;;;;;;0.00;0.00;;;;;;;;;;5039670;28;20029;-88
2021/10/23 06:17:16;;;;;;;0.00;0.00;;;;;;;;;;5035530;28;20855;-87
2021/10/23 06:19:42;;;;;;;0.10;0.10;;;;;;;;;;5039789;28;20025;-86
2021/10/23 06:22:08;;;;;;;0.30;0.30;;;;;;;;;;5043752;28;20114;-86
2021/10/23 06:24:35;;;;;;;0.00;0.00;;;;;;;;;;5038121;28;20221;-85
2021/10/23 06:27:01;;;;;;;0.10;0.10;;;;;;;;;;5037233;28;20521;-84
2021/10/23 06:29:27;;;;;;;0.10;0.10;;;;;;;;;;5038466;28;20029;-85
2021/10/23 06:31:53;;;;;;;0.10;0.10;;;;;;;;;;5036897;28;20127;-84
2021/10/23 06:34:19;;;;;;;0.00;0.00;;;;;;;;;;5034852;28;20120;-84
2021/10/23 06:36:45;;;;;;;0.03;0.03;;;;;;;;;;5036469;28;20025;-84
2021/10/23 06:39:11;;;;;;;0.20;0.20;;;;;;;;;;5046047;28;20043;-84
2021/10/23 06:41:37;;;;;;;0.10;0.10;;;;;;;;;;5044362;28;20040;-84
2021/10/23 06:44:07;;;;;;;0.30;0.30;;;;;;;;;;5044626;28;20056;-85
2021/10/23 06:46:33;;;;;;;0.10;0.10;;;;;;;;;;5044446;28;20032;-84
2021/10/23 06:48:59;;;;;;;0.40;0.40;;;;;;;;;;5044450;28;20402;-84
2021/10/23 06:51:25;;;;;;;0.03;0.03;;;;;;;;;;5045575;28;20666;-84
2021/10/23 06:53:54;;;;;;;0.45;0.45;;;;;;;;;;5045092;28;20052;-84
2021/10/23 06:56:21;;;;;;;0.10;0.10;;;;;;;;;;5044228;28;20025;-84
2021/10/23 06:58:47;;;;;;;0.22;0.22;;;;;;;;;;5044503;28;20489;-85
2021/10/23 07:01:13;;;;;;;0.30;0.30;;;;;;;;;;5044400;28;20128;-85
2021/10/23 07:03:39;;;;;;;0.17;0.17;;;;;;;;;;5044166;28;20080;-85
2021/10/23 07:06:05;;;;;;;0.10;0.10;;;;;;;;;;5045736;28;20069;-84
2021/10/23 07:08:31;;;;;;;0.10;0.10;;;;;;;;;;5043504;28;20112;-84
2021/10/23 07:10:57;;;;;;;0.10;0.10;;;;;;;;;;5044015;28;20068;-84
2021/10/23 07:13:23;;;;;;;0.10;0.10;;;;;;;;;;5044282;28;20400;-84
2021/10/23 07:15:49;;;;;;;0.10;0.10;;;;;;;;;;5044084;28;20503;-84
2021/10/23 07:18:15;;;;;;;0.30;0.30;;;;;;;;;;5046276;28;20142;-85
2021/10/23 07:20:41;;;;;;;0.40;0.40;;;;;;;;;;5044105;28;20217;-84
2021/10/23 07:23:07;;;;;;;0.10;0.10;;;;;;;;;;5044364;28;20037;-84
2021/10/23 07:25:33;;;;;;;0.17;0.17;;;;;;;;;;5043785;28;20508;-84
2021/10/23 07:27:59;;;;;;;0.10;0.10;;;;;;;;;;5044212;28;20031;-84
2021/10/23 07:30:25;;;;;;;0.53;0.30;;;;;;;;;;5045170;28;20111;-85
2021/10/23 07:32:52;;;;;;;0.43;0.43;;;;;;;;;;5044412;28;20112;-83
2021/10/23 07:35:18;;;;;;;0.10;0.10;;;;;;;;;;5043661;28;20025;-84
2021/10/23 07:37:44;;;;;;;0.22;0.22;;;;;;;;;;5043894;28;20039;-84
2021/10/23 07:40:11;;;;;;;0.10;0.10;;;;;;;;;;5038774;28;20626;-84
2021/10/23 07:42:38;;;;;;;0.20;0.20;;;;;;;;;;5025756;28;20792;-84
2021/10/23 07:45:05;;;;;;;0.15;0.15;;;;;;;;;;5031551;28;20034;-83
2021/10/23 07:47:32;;;;;;;0.20;0.20;;;;;;;;;;5030092;28;20041;-84
2021/10/23 07:49:58;;;;;;;0.10;0.10;;;;;;;;;;5027355;28;20080;-84
2021/10/23 07:52:24;;;;;;;0.10;0.10;;;;;;;;;;5027249;28;20128;-84
2021/10/23 07:54:50;;;;;;;0.38;0.38;;;;;;;;;;5026763;28;20035;-84
2021/10/23 07:57:16;;;;;;;0.10;0.10;;;;;;;;;;5026876;28;20032;-84
2021/10/23 07:59:44;;;;;;;0.00;0.00;;;;;;;;;;5027305;28;20037;-84
2021/10/23 08:02:10;;;;;;;0.15;0.15;;;;;;;;;;5027849;28;20038;-84
2021/10/23 08:04:36;;;;;;;0.00;0.00;;;;;;;;;;5026227;28;20099;-84
2021/10/23 08:07:03;;;;;;;0.10;0.10;;;;;;;;;;5012123;28;20741;-86
2021/10/23 08:09:33;;;;;;;0.10;0.10;;;;;;;;;;5041077;28;20025;-84
2021/10/23 08:12:00;;;;;;;0.10;0.10;;;;;;;;;;5035533;28;20037;-84
2021/10/23 08:14:26;;;;;;;0.15;0.15;;;;;;;;;;5034061;28;20309;-84
2021/10/23 08:16:53;;;;;;;3.50;1.58;;;;;;;;;;5029526;28;20106;-84
2021/10/23 08:19:20;;;;;;;0.10;0.10;;;;;;;;;;5027093;28;20104;-84
2021/10/23 08:21:46;;;;;;;0.10;0.10;;;;;;;;;;5034314;28;20038;-84
2021/10/23 08:24:12;;;;;;;0.20;0.20;;;;;;;;;;5031359;28;20021;-83
2021/10/23 08:26:39;;;;;;;0.10;0.10;;;;;;;;;;5040105;28;20086;-84
2021/10/23 08:29:05;;;;;;;0.13;0.13;;;;;;;;;;5034418;28;20037;-83
2021/10/23 08:31:31;;;;;;;0.10;0.10;;;;;;;;;;5029363;28;20467;-84
2021/10/23 08:33:58;;;;;;;0.15;0.15;;;;;;;;;;5037225;28;20082;-84
2021/10/23 08:36:24;;;;;;;0.47;0.47;;;;;;;;;;5026526;28;20090;-84
2021/10/23 08:38:54;;;;;;;0.10;0.10;;;;;;;;;;5026395;28;20025;-85
2021/10/23 08:41:21;;;;;;;0.10;0.10;;;;;;;;;;5038008;28;20564;-84
2021/10/23 08:43:47;;;;;;;0.00;0.00;;;;;;;;;;5040696;28;20082;-84
2021/10/23 08:46:16;;;;;;;0.20;0.20;;;;;;;;;;5035548;28;20187;-84
2021/10/23 08:48:43;;;;;;;32.78;0.90;;;;;;;;;;5028748;28;20055;-85
2021/10/23 08:51:09;;;;;;;2.33;0.73;;;;;;;;;;5020808;28;20044;-86
2021/10/23 08:53:37;;;;;;;0.00;0.00;;;;;;;;;;5030829;28;20040;-84
2021/10/23 08:56:03;;;;;;;0.20;0.20;;;;;;;;;;5037403;28;20036;-84
2021/10/23 08:58:30;;;;;;;0.03;0.03;;;;;;;;;;5041588;28;20124;-84
2021/10/23 09:00:56;;;;;;;0.10;0.10;;;;;;;;;;5040466;28;20588;-85
2021/10/23 09:03:23;;;;;;;0.00;0.00;;;;;;;;;;5035736;28;20654;-84
2021/10/23 09:05:50;;;;;;;0.10;0.10;;;;;;;;;;5025026;28;20598;-84
2021/10/23 09:08:17;;;;;;;0.10;0.10;;;;;;;;;;5029999;28;20537;-84
2021/10/23 09:10:53;;;;;;;0.15;0.15;;;;;;;;;;5025751;28;20691;-85
2021/10/23 09:13:30;;;;;;;0.10;0.10;;;;;;;;;;5036414;28;20033;-85
2021/10/23 09:15:56;;;;;;;0.30;0.30;;;;;;;;;;5016200;28;20564;-86
2021/10/23 09:18:40;;;;;;;0.05;0.05;;;;;;;;;;5026344;28;20025;-84
2021/10/23 09:21:15;;;;;;;0.00;0.00;;;;;;;;;;5023932;28;20828;-85
2021/10/23 09:23:41;;;;;;;0.10;0.10;;;;;;;;;;5041750;28;20120;-84
2021/10/23 09:26:07;;;;;;;0.38;0.38;;;;;;;;;;5042123;28;20837;-84
2021/10/23 09:28:34;;;;;;;0.07;0.07;;;;;;;;;;5036868;28;20033;-84
2021/10/23 09:31:00;;;;;;;0.10;0.10;;;;;;;;;;5029707;28;20287;-84
2021/10/23 09:33:31;;;;;;;0.00;0.00;;;;;;;;;;5028865;28;20235;-85
2021/10/23 09:36:03;;;;;;;0.17;0.17;;;;;;;;;;5029037;28;20033;-85
2021/10/23 09:38:31;;;;;;;0.10;0.10;;;;;;;;;;5029443;28;20068;-84
2021/10/23 09:41:09;;;;;;;0.10;0.10;;;;;;;;;;5028180;28;20059;-84
2021/10/23 09:43:35;;;;;;;0.10;0.10;;;;;;;;;;5018649;28;20041;-84
2021/10/23 09:46:03;;;;;;;0.10;0.10;;;;;;;;;;5040661;28;20033;-85
2021/10/23 09:48:30;;;;;;;2.72;1.45;;;;;;;;;;5025897;28;20033;-84
2021/10/23 09:51:19;;;;;;;0.10;0.10;;;;;;;;;;5028645;28;20041;-84
2021/10/23 09:53:47;;;;;;;0.03;0.03;;;;;;;;;;5020873;28;20049;-84
2021/10/23 09:56:17;;;;;;;0.10;0.10;;;;;;;;;;5029516;28;20462;-85
2021/10/23 09:59:22;;;;;;;0.10;0.10;;;;;;;;;;5028424;28;20167;-84
2021/10/23 10:01:49;;;;;;;1.55;0.40;;;;;;;;;;4979601;28;20042;-84
2021/10/23 10:04:16;;;;;;;13.60;2.97;;;;;;;;;;4978663;28;20030;-84
2021/10/23 10:06:43;;;;;;;0.10;0.10;;;;;;;;;;4979090;28;20034;-85
2021/10/23 10:09:11;;;;;;;0.10;0.10;;;;;;;;;;4980274;28;20427;-84
2021/10/23 10:11:38;;;;;;;0.10;0.10;;;;;;;;;;4970378;28;20886;-83
2021/10/23 10:14:07;;;;;;;0.10;0.10;;;;;;;;;;4970284;28;20041;-86
2021/10/23 10:16:33;;;;;;;0.00;0.00;;;;;;;;;;4975158;28;20907;-86
2021/10/23 10:18:59;;;;;;;0.10;0.10;;;;;;;;;;4978859;28;20038;-85
2021/10/23 10:21:26;;;;;;;0.10;0.10;;;;;;;;;;4972754;28;20050;-85
2021/10/23 10:23:54;;;;;;;0.10;0.10;;;;;;;;;;4970087;28;20594;-84
2021/10/23 10:26:25;;;;;;;0.45;0.22;;;;;;;;;;4972633;28;20038;-84
2021/10/23 10:29:11;;;;;;;0.10;0.10;;;;;;;;;;4968624;28;20045;-85
2021/10/23 10:31:57;;;;;;;0.20;0.20;;;;;;;;;;4973314;28;20146;-85
2021/10/23 10:42:50;;;;;;;0.10;0.10;;;;;;;;;;4956706;28;20558;-88
2021/10/23 10:45:28;;;;;;;0.10;0.10;;;;;;;;;;4956843;28;20031;-87
2021/10/23 10:48:13;;;;;;;0.10;0.10;;;;;;;;;;4955585;28;20054;-86
2021/10/23 10:50:44;;;;;;;0.10;0.10;;;;;;;;;;4955448;28;20038;-84
2021/10/23 10:53:17;;;;;;;0.00;0.00;;;;;;;;;;4957611;28;20483;-85
2021/10/23 10:55:45;;;;;;;0.10;0.10;;;;;;;;;;4960449;28;20066;-86
2021/10/23 10:58:11;;;;;;;0.50;0.20;;;;;;;;;;4961330;28;20039;-84
2021/10/23 11:00:46;;;;;;;0.10;0.10;;;;;;;;;;4958446;28;20950;-85
2021/10/23 11:03:31;;;;;;;0.10;0.10;;;;;;;;;;4959760;28;20121;-89
2021/10/23 11:05:59;;;;;;;0.00;0.00;;;;;;;;;;4960156;28;20049;-84
2021/10/23 11:08:26;;;;;;;0.10;0.10;;;;;;;;;;4958380;28;20066;-84
2021/10/23 11:10:56;;;;;;;0.00;0.00;;;;;;;;;;4953898;28;20541;-85
2021/10/23 11:13:29;;;;;;;0.00;0.00;;;;;;;;;;4967692;28;20076;-86
2021/10/23 11:15:56;;;;;;;0.00;0.00;;;;;;;;;;5031005;28;20033;-86
2021/10/23 11:18:22;;;;;;;0.10;0.10;;;;;;;;;;5042439;28;20036;-85
2021/10/23 11:20:48;;;;;;;0.10;0.10;;;;;;;;;;5038012;28;20033;-85
2021/10/23 11:23:20;;;;;;;0.10;0.10;;;;;;;;;;5040048;28;20037;-85
2021/10/23 11:25:46;;;;;;;0.10;0.10;;;;;;;;;;5035307;28;20103;-87
2021/10/23 11:28:12;;;;;;;0.10;0.10;;;;;;;;;;5029426;28;20037;-86
2021/10/23 11:30:42;;;;;;;0.10;0.10;;;;;;;;;;5040408;28;20029;-86
2021/10/23 11:33:11;;;;;;;0.10;0.10;;;;;;;;;;5039036;28;20041;-85
2021/10/23 11:35:37;;;;;;;0.10;0.10;;;;;;;;;;5032230;28;20108;-85
2021/10/23 11:38:05;;;;;;;0.10;0.10;;;;;;;;;;5030164;28;20072;-87
2021/10/23 11:40:31;;;;;;;0.10;0.10;;;;;;;;;;5036866;28;20295;-85
2021/10/23 11:42:57;;;;;;;0.10;0.10;;;;;;;;;;5039762;28;20079;-85
2021/10/23 11:45:28;;;;;;;0.10;0.10;;;;;;;;;;5035707;28;20038;-86
2021/10/23 11:47:54;;;;;;;0.10;0.10;;;;;;;;;;5030265;28;20280;-85
2021/10/23 11:50:28;;;;;;;0.10;0.10;;;;;;;;;;5028467;28;20032;-85
2021/10/23 11:53:01;;;;;;;0.10;0.10;;;;;;;;;;5027859;28;20057;-86
2021/10/23 11:55:28;;;;;;;0.08;0.08;;;;;;;;;;5030001;28;20039;-86
2021/10/23 11:57:55;;;;;;;0.00;0.00;;;;;;;;;;5029618;28;20072;-85
2021/10/23 12:00:21;;;;;;;0.10;0.10;;;;;;;;;;5031737;28;20080;-84
2021/10/23 12:03:03;;;;;;;0.00;0.00;;;;;;;;;;5032439;28;20041;-87
2021/10/23 12:05:38;;;;;;;1.58;0.57;;;;;;;;;;5033553;28;20095;-86
2021/10/23 12:08:08;;;;;;;0.10;0.10;;;;;;;;;;5033033;28;20136;-86
2021/10/23 12:10:34;;;;;;;0.00;0.00;;;;;;;;;;5034728;28;20047;-87
2021/10/23 12:13:14;;;;;;;0.00;0.00;;;;;;;;;;5033213;28;20034;-84
2021/10/23 12:15:40;;;;;;;0.68;0.25;;;;;;;;;;5035352;28;20416;-88
2021/10/23 12:18:07;;;;;;;0.15;0.15;;;;;;;;;;5036431;28;20017;-85
2021/10/23 12:20:36;;;;;;;0.10;0.10;;;;;;;;;;5036967;28;20094;-85
2021/10/23 12:23:04;;;;;;;0.10;0.10;;;;;;;;;;5031921;28;20167;-84
2021/10/23 12:25:30;;;;;;;0.10;0.10;;;;;;;;;;5036441;28;20047;-85
2021/10/23 12:28:00;;;;;;;0.10;0.10;;;;;;;;;;5037132;28;20754;-86
2021/10/23 12:30:27;;;;;;;0.10;0.10;;;;;;;;;;5034870;28;20025;-85
2021/10/23 12:32:53;;;;;;;;;;;;;;;;;;5037272;28;20041;-84
2021/10/23 12:35:20;;;;;;;0.22;0.22;;;;;;;;;;5028754;28;19916;-87
2021/10/23 12:37:46;;;;;;;;;;;;;;;;;;5033693;28;20033;-85
2021/10/23 12:40:13;;;;;;;0.15;0.15;;;;;;;;;;5024090;28;19924;-86
2021/10/23 12:42:43;;;;;;;0.10;0.10;;;;;;;;;;5021274;28;20037;-85
2021/10/23 12:45:11;;;;;;;0.00;0.00;;;;;;;;;;5040835;28;20078;-85
2021/10/23 12:47:38;;;;;;;0.20;0.20;;;;;;;;;;5038978;28;20024;-84
2021/10/23 12:50:07;;;;;;;0.10;0.10;;;;;;;;;;5040238;28;20098;-84
2021/10/23 12:52:34;;;;;;;0.00;0.00;;;;;;;;;;5036261;28;20081;-83
2021/10/23 12:55:01;;;;;;;0.10;0.10;;;;;;;;;;5036114;28;20040;-84
2021/10/23 12:57:29;;;;;;;0.25;0.22;;;;;;;;;;5044027;28;20497;-84
2021/10/23 12:59:56;;;;;;;0.10;0.10;;;;;;;;;;5040004;28;20725;-84
2021/10/23 13:02:22;;;;;;;0.00;0.00;;;;;;;;;;5035685;28;20399;-84
2021/10/23 13:04:48;;;;;;;0.10;0.10;;;;;;;;;;5037227;28;20521;-85
2021/10/23 13:07:17;;;;;;;0.00;0.00;;;;;;;;;;5034203;28;20312;-83
2021/10/23 13:09:43;;;;;;;0.20;0.20;;;;;;;;;;5016690;28;20033;-82
2021/10/23 13:12:09;;;;;;;0.03;0.03;;;;;;;;;;5044872;28;20086;-84
2021/10/23 13:14:35;;;;;;;0.00;0.00;;;;;;;;;;5036675;28;20037;-83
2021/10/23 13:17:01;;;;;;;0.10;0.10;;;;;;;;;;5036719;28;20102;-84
2021/10/23 13:19:27;;;;;;;0.00;0.00;;;;;;;;;;5038285;28;20127;-84
2021/10/23 13:21:53;;;;;;;0.10;0.10;;;;;;;;;;5034346;28;20040;-84
2021/10/23 13:24:19;;;;;;;0.10;0.10;;;;;;;;;;5039267;28;20029;-84
2021/10/23 13:26:45;;;;;;;0.10;0.10;;;;;;;;;;5038313;28;20025;-82
2021/10/23 13:29:11;;;;;;;0.15;0.15;;;;;;;;;;5035515;28;20032;-84
2021/10/23 13:31:38;;;;;;;0.00;0.00;;;;;;;;;;5039867;28;20116;-83
2021/10/23 13:34:04;;;;;;;;;;;;;;;;;;5036332;28;20029;-83
2021/10/23 13:36:30;;;;;;;0.10;0.10;;;;;;;;;;5033075;28;20523;-82
2021/10/23 13:38:56;;;;;;;0.10;0.10;;;;;;;;;;5035223;28;20036;-83
2021/10/23 13:41:23;;;;;;;0.20;0.20;;;;;;;;;;5037919;28;20584;-82
2021/10/23 13:43:49;;;;;;;0.60;0.43;;;;;;;;;;5033824;28;20065;-84
2021/10/23 13:46:15;;;;;;;0.10;0.10;;;;;;;;;;5035165;28;20029;-83
2021/10/23 13:48:41;;;;;;;0.40;0.33;;;;;;;;;;5034746;28;20021;-83
2021/10/23 13:51:07;;;;;;;0.00;0.00;;;;;;;;;;5036007;28;20045;-81
2021/10/23 13:53:35;;;;;;;0.33;0.33;;;;;;;;;;5033141;28;20033;-81
2021/10/23 13:56:01;;;;;;;0.10;0.10;;;;;;;;;;5034930;28;20133;-81
2021/10/23 13:58:27;;;;;;;0.10;0.10;;;;;;;;;;5035046;28;20033;-82
2021/10/23 14:00:53;;;;;;;0.10;0.10;;;;;;;;;;5033458;28;20029;-81
2021/10/23 14:03:21;;;;;;;0.10;0.10;;;;;;;;;;5035685;28;20017;-81
2021/10/23 14:05:47;;;;;;;0.40;0.20;;;;;;;;;;5041751;28;20168;-80
2021/10/23 14:08:13;;;;;;;0.17;0.17;;;;;;;;;;5038608;28;20033;-82
2021/10/23 14:10:39;;;;;;;0.10;0.10;;;;;;;;;;5033885;28;20033;-81
2021/10/23 14:13:05;;;;;;;3.97;0.63;;;;;;;;;;5039488;28;21016;-82
2021/10/23 14:15:32;;;;;;;0.10;0.10;;;;;;;;;;5038808;28;20033;-81
2021/10/23 14:17:58;;;;;;;0.10;0.10;;;;;;;;;;5041462;28;20044;-80
2021/10/23 14:20:25;;;;;;;0.15;0.15;;;;;;;;;;5039926;28;20051;-80
2021/10/23 14:22:51;;;;;;;0.00;0.00;;;;;;;;;;5043993;28;20072;-78
2021/10/23 14:25:17;;;;;;;0.10;0.10;;;;;;;;;;5035314;28;20283;-79
2021/10/23 14:27:55;;;;;;;0.10;0.10;;;;;;;;;;5037165;28;20026;-80
2021/10/23 14:30:22;;;;;;;0.52;0.52;;;;;;;;;;5038256;28;20492;-78
2021/10/23 14:32:48;;;;;;;0.55;0.55;;;;;;;;;;5039804;28;20037;-78
2021/10/23 14:35:14;;;;;;;0.30;0.30;;;;;;;;;;5043234;28;20116;-79
2021/10/23 14:37:40;;;;;;;0.10;0.10;;;;;;;;;;5041617;28;20427;-78
2021/10/23 14:40:08;;;;;;;0.10;0.10;;;;;;;;;;5042867;28;20029;-78
2021/10/23 14:42:34;;;;;;;0.00;0.00;;;;;;;;;;5042700;28;20044;-79
2021/10/23 14:45:00;;;;;;;0.00;0.00;;;;;;;;;;5039367;28;20025;-80
2021/10/23 14:47:26;;;;;;;0.10;0.10;;;;;;;;;;5044197;28;20032;-79
2021/10/23 14:49:52;;;;;;;4.73;1.30;;;;;;;;;;5043340;28;20028;-79
2021/10/23 14:52:19;;;;;;;0.10;0.10;;;;;;;;;;5039686;28;20146;-79